sensor_id;sensor_type;location;lat;lon;timestamp;P1;durP1;ratioP1;P2;durP2;ratioP2
76380;SDS011;65202;52.520;10.528;2023-07-02T00:00:10;17.55;;;10.00;;
76380;SDS011;65202;52.520;10.528;2023-07-02T00:02:37;14.80;;;8.15;;
76380;SDS011;65202;52.520;10.528;2023-07-02T00:05:05;16.10;;;7.20;;
76380;SDS011;65202;52.520;10.528;2023-07-02T00:07:34;12.85;;;7.65;;
76380;SDS011;65202;52.520;10.528;2023-07-02T00:10:04;12.93;;;7.07;;
76380;SDS011;65202;52.520;10.528;2023-07-02T00:12:32;9.93;;;7.10;;
76380;SDS011;65202;52.520;10.528;2023-07-02T00:15:00;13.50;;;7.60;;
76380;SDS011;65202;52.520;10.528;2023-07-02T00:17:28;11.55;;;7.68;;
76380;SDS011;65202;52.520;10.528;2023-07-02T00:19:55;11.40;;;7.97;;
76380;SDS011;65202;52.520;10.528;2023-07-02T00:22:22;15.60;;;8.30;;
76380;SDS011;65202;52.520;10.528;2023-07-02T00:24:49;14.35;;;8.88;;
76380;SDS011;65202;52.520;10.528;2023-07-02T00:27:18;13.38;;;8.70;;
76380;SDS011;65202;52.520;10.528;2023-07-02T00:29:45;11.98;;;8.32;;
76380;SDS011;65202;52.520;10.528;2023-07-02T00:32:13;17.52;;;9.20;;
76380;SDS011;65202;52.520;10.528;2023-07-02T00:34:40;15.52;;;8.70;;
76380;SDS011;65202;52.520;10.528;2023-07-02T00:37:07;15.27;;;9.13;;
76380;SDS011;65202;52.520;10.528;2023-07-02T00:39:34;16.17;;;8.82;;
76380;SDS011;65202;52.520;10.528;2023-07-02T00:42:02;15.73;;;9.23;;
76380;SDS011;65202;52.520;10.528;2023-07-02T00:44:31;18.55;;;8.90;;
76380;SDS011;65202;52.520;10.528;2023-07-02T00:46:58;16.25;;;8.88;;
76380;SDS011;65202;52.520;10.528;2023-07-02T00:49:25;18.98;;;9.20;;
76380;SDS011;65202;52.520;10.528;2023-07-02T00:51:53;17.60;;;8.52;;
76380;SDS011;65202;52.520;10.528;2023-07-02T00:54:22;14.52;;;8.10;;
76380;SDS011;65202;52.520;10.528;2023-07-02T00:56:49;12.63;;;8.35;;
76380;SDS011;65202;52.520;10.528;2023-07-02T00:59:17;17.63;;;8.25;;
76380;SDS011;65202;52.520;10.528;2023-07-02T01:01:44;16.55;;;7.55;;
76380;SDS011;65202;52.520;10.528;2023-07-02T01:04:17;14.82;;;8.02;;
76380;SDS011;65202;52.520;10.528;2023-07-02T01:06:45;10.75;;;7.30;;
76380;SDS011;65202;52.520;10.528;2023-07-02T01:09:13;10.73;;;6.97;;
76380;SDS011;65202;52.520;10.528;2023-07-02T01:11:41;16.13;;;7.10;;
76380;SDS011;65202;52.520;10.528;2023-07-02T01:14:30;15.32;;;6.95;;
76380;SDS011;65202;52.520;10.528;2023-07-02T01:17:05;14.48;;;6.80;;
76380;SDS011;65202;52.520;10.528;2023-07-02T01:22:21;15.57;;;6.40;;
76380;SDS011;65202;52.520;10.528;2023-07-02T01:24:50;13.05;;;6.30;;
76380;SDS011;65202;52.520;10.528;2023-07-02T01:27:19;17.40;;;7.38;;
76380;SDS011;65202;52.520;10.528;2023-07-02T01:29:50;17.55;;;6.63;;
76380;SDS011;65202;52.520;10.528;2023-07-02T01:32:18;13.65;;;6.28;;
76380;SDS011;65202;52.520;10.528;2023-07-02T01:34:47;16.60;;;6.15;;
76380;SDS011;65202;52.520;10.528;2023-07-02T01:37:20;17.35;;;6.15;;
76380;SDS011;65202;52.520;10.528;2023-07-02T01:39:47;14.93;;;6.20;;
76380;SDS011;65202;52.520;10.528;2023-07-02T01:42:15;11.85;;;5.85;;
76380;SDS011;65202;52.520;10.528;2023-07-02T01:44:46;19.80;;;6.38;;
76380;SDS011;65202;52.520;10.528;2023-07-02T01:47:17;18.13;;;6.43;;
76380;SDS011;65202;52.520;10.528;2023-07-02T01:49:46;20.30;;;5.90;;
76380;SDS011;65202;52.520;10.528;2023-07-02T01:52:14;13.05;;;6.28;;
76380;SDS011;65202;52.520;10.528;2023-07-02T01:54:41;12.18;;;6.50;;
76380;SDS011;65202;52.520;10.528;2023-07-02T01:57:08;15.82;;;6.00;;
76380;SDS011;65202;52.520;10.528;2023-07-02T01:59:36;16.55;;;6.38;;
76380;SDS011;65202;52.520;10.528;2023-07-02T02:02:03;16.25;;;5.90;;
76380;SDS011;65202;52.520;10.528;2023-07-02T02:04:30;13.13;;;6.60;;
76380;SDS011;65202;52.520;10.528;2023-07-02T02:06:57;17.85;;;5.93;;
76380;SDS011;65202;52.520;10.528;2023-07-02T02:09:25;9.50;;;6.07;;
76380;SDS011;65202;52.520;10.528;2023-07-02T02:11:55;11.65;;;6.10;;
76380;SDS011;65202;52.520;10.528;2023-07-02T02:14:22;14.43;;;6.25;;
76380;SDS011;65202;52.520;10.528;2023-07-02T02:16:49;11.20;;;5.25;;
76380;SDS011;65202;52.520;10.528;2023-07-02T02:19:16;16.73;;;5.63;;
76380;SDS011;65202;52.520;10.528;2023-07-02T02:21:44;19.73;;;5.70;;
76380;SDS011;65202;52.520;10.528;2023-07-02T02:24:11;15.55;;;5.72;;
76380;SDS011;65202;52.520;10.528;2023-07-02T02:26:39;12.68;;;5.45;;
76380;SDS011;65202;52.520;10.528;2023-07-02T02:29:07;13.18;;;5.53;;
76380;SDS011;65202;52.520;10.528;2023-07-02T02:31:34;9.18;;;5.63;;
76380;SDS011;65202;52.520;10.528;2023-07-02T02:34:02;12.30;;;5.60;;
76380;SDS011;65202;52.520;10.528;2023-07-02T02:36:30;10.07;;;4.90;;
76380;SDS011;65202;52.520;10.528;2023-07-02T02:38:59;12.40;;;5.28;;
76380;SDS011;65202;52.520;10.528;2023-07-02T02:41:26;15.32;;;4.97;;
76380;SDS011;65202;52.520;10.528;2023-07-02T02:43:53;9.57;;;5.03;;
76380;SDS011;65202;52.520;10.528;2023-07-02T02:46:21;15.13;;;5.15;;
76380;SDS011;65202;52.520;10.528;2023-07-02T02:48:49;11.63;;;4.97;;
76380;SDS011;65202;52.520;10.528;2023-07-02T02:51:18;10.15;;;5.00;;
76380;SDS011;65202;52.520;10.528;2023-07-02T02:53:45;7.53;;;4.40;;
76380;SDS011;65202;52.520;10.528;2023-07-02T02:56:13;15.98;;;5.20;;
76380;SDS011;65202;52.520;10.528;2023-07-02T02:58:40;12.60;;;5.13;;
76380;SDS011;65202;52.520;10.528;2023-07-02T03:01:08;18.60;;;5.05;;
76380;SDS011;65202;52.520;10.528;2023-07-02T03:03:38;14.43;;;4.80;;
76380;SDS011;65202;52.520;10.528;2023-07-02T03:06:07;13.90;;;5.22;;
76380;SDS011;65202;52.520;10.528;2023-07-02T03:08:34;12.05;;;5.18;;
76380;SDS011;65202;52.520;10.528;2023-07-02T03:11:02;13.68;;;5.25;;
76380;SDS011;65202;52.520;10.528;2023-07-02T03:13:29;10.70;;;4.55;;
76380;SDS011;65202;52.520;10.528;2023-07-02T03:15:56;10.70;;;4.85;;
76380;SDS011;65202;52.520;10.528;2023-07-02T03:18:23;19.35;;;5.22;;
76380;SDS011;65202;52.520;10.528;2023-07-02T03:20:50;12.43;;;5.07;;
76380;SDS011;65202;52.520;10.528;2023-07-02T03:23:18;11.77;;;5.18;;
76380;SDS011;65202;52.520;10.528;2023-07-02T03:25:45;11.40;;;5.15;;
76380;SDS011;65202;52.520;10.528;2023-07-02T03:28:13;8.55;;;5.05;;
76380;SDS011;65202;52.520;10.528;2023-07-02T03:30:40;11.98;;;5.50;;
76380;SDS011;65202;52.520;10.528;2023-07-02T03:33:08;12.35;;;5.32;;
76380;SDS011;65202;52.520;10.528;2023-07-02T03:35:36;15.93;;;7.00;;
76380;SDS011;65202;52.520;10.528;2023-07-02T03:38:04;15.30;;;5.90;;
76380;SDS011;65202;52.520;10.528;2023-07-02T03:40:32;7.63;;;5.78;;
76380;SDS011;65202;52.520;10.528;2023-07-02T03:43:00;8.73;;;5.68;;
76380;SDS011;65202;52.520;10.528;2023-07-02T03:45:27;8.90;;;5.82;;
76380;SDS011;65202;52.520;10.528;2023-07-02T03:47:55;11.90;;;5.85;;
76380;SDS011;65202;52.520;10.528;2023-07-02T03:50:22;13.38;;;6.03;;
76380;SDS011;65202;52.520;10.528;2023-07-02T03:52:49;12.63;;;6.22;;
76380;SDS011;65202;52.520;10.528;2023-07-02T03:55:17;12.27;;;5.68;;
76380;SDS011;65202;52.520;10.528;2023-07-02T03:57:44;13.82;;;5.57;;
76380;SDS011;65202;52.520;10.528;2023-07-02T04:00:11;16.00;;;6.35;;
76380;SDS011;65202;52.520;10.528;2023-07-02T04:02:39;13.43;;;5.88;;
76380;SDS011;65202;52.520;10.528;2023-07-02T04:05:06;13.30;;;5.90;;
76380;SDS011;65202;52.520;10.528;2023-07-02T04:07:34;15.48;;;6.45;;
76380;SDS011;65202;52.520;10.528;2023-07-02T04:10:01;13.23;;;5.70;;
76380;SDS011;65202;52.520;10.528;2023-07-02T04:12:28;15.82;;;6.10;;
76380;SDS011;65202;52.520;10.528;2023-07-02T04:14:56;8.95;;;5.95;;
76380;SDS011;65202;52.520;10.528;2023-07-02T04:17:23;13.10;;;6.03;;
76380;SDS011;65202;52.520;10.528;2023-07-02T04:19:53;10.07;;;5.82;;
76380;SDS011;65202;52.520;10.528;2023-07-02T04:22:22;14.52;;;5.65;;
76380;SDS011;65202;52.520;10.528;2023-07-02T04:24:49;14.15;;;6.00;;
76380;SDS011;65202;52.520;10.528;2023-07-02T04:30:09;11.27;;;5.97;;
76380;SDS011;65202;52.520;10.528;2023-07-02T04:32:38;15.82;;;6.03;;
76380;SDS011;65202;52.520;10.528;2023-07-02T04:35:09;15.35;;;6.20;;
76380;SDS011;65202;52.520;10.528;2023-07-02T04:37:38;13.68;;;6.55;;
76380;SDS011;65202;52.520;10.528;2023-07-02T04:40:05;18.13;;;7.60;;
76380;SDS011;65202;52.520;10.528;2023-07-02T04:42:37;26.50;;;13.75;;
76380;SDS011;65202;52.520;10.528;2023-07-02T04:45:05;20.27;;;8.63;;
76380;SDS011;65202;52.520;10.528;2023-07-02T04:47:35;15.00;;;8.02;;
76380;SDS011;65202;52.520;10.528;2023-07-02T04:50:03;10.95;;;6.35;;
76380;SDS011;65202;52.520;10.528;2023-07-02T04:52:32;14.23;;;6.53;;
76380;SDS011;65202;52.520;10.528;2023-07-02T04:55:00;17.30;;;6.60;;
76380;SDS011;65202;52.520;10.528;2023-07-02T04:57:27;11.23;;;6.78;;
76380;SDS011;65202;52.520;10.528;2023-07-02T04:59:55;18.88;;;6.68;;
76380;SDS011;65202;52.520;10.528;2023-07-02T05:02:22;14.90;;;7.07;;
76380;SDS011;65202;52.520;10.528;2023-07-02T05:04:49;10.90;;;6.47;;
76380;SDS011;65202;52.520;10.528;2023-07-02T05:07:16;11.65;;;6.60;;
76380;SDS011;65202;52.520;10.528;2023-07-02T05:09:44;16.92;;;6.85;;
76380;SDS011;65202;52.520;10.528;2023-07-02T05:12:11;9.77;;;6.38;;
76380;SDS011;65202;52.520;10.528;2023-07-02T05:14:38;15.88;;;7.18;;
76380;SDS011;65202;52.520;10.528;2023-07-02T05:17:05;16.05;;;6.53;;
76380;SDS011;65202;52.520;10.528;2023-07-02T05:19:33;14.10;;;7.55;;
76380;SDS011;65202;52.520;10.528;2023-07-02T05:22:00;17.42;;;7.30;;
76380;SDS011;65202;52.520;10.528;2023-07-02T05:24:27;15.93;;;7.20;;
76380;SDS011;65202;52.520;10.528;2023-07-02T05:26:54;14.88;;;7.13;;
76380;SDS011;65202;52.520;10.528;2023-07-02T05:29:22;12.98;;;7.43;;
76380;SDS011;65202;52.520;10.528;2023-07-02T05:31:49;10.00;;;6.90;;
76380;SDS011;65202;52.520;10.528;2023-07-02T05:34:16;13.13;;;7.55;;
76380;SDS011;65202;52.520;10.528;2023-07-02T05:36:43;26.15;;;16.15;;
76380;SDS011;65202;52.520;10.528;2023-07-02T05:39:11;17.13;;;8.65;;
76380;SDS011;65202;52.520;10.528;2023-07-02T05:41:38;14.95;;;7.65;;
76380;SDS011;65202;52.520;10.528;2023-07-02T05:44:05;13.52;;;7.93;;
76380;SDS011;65202;52.520;10.528;2023-07-02T05:46:32;17.60;;;8.18;;
76380;SDS011;65202;52.520;10.528;2023-07-02T05:49:00;12.02;;;8.48;;
76380;SDS011;65202;52.520;10.528;2023-07-02T05:51:27;11.63;;;7.90;;
76380;SDS011;65202;52.520;10.528;2023-07-02T05:53:54;16.08;;;8.18;;
76380;SDS011;65202;52.520;10.528;2023-07-02T05:56:21;10.82;;;7.97;;
76380;SDS011;65202;52.520;10.528;2023-07-02T05:58:48;23.58;;;8.38;;
76380;SDS011;65202;52.520;10.528;2023-07-02T06:01:17;13.27;;;8.45;;
76380;SDS011;65202;52.520;10.528;2023-07-02T06:03:44;14.32;;;8.27;;
76380;SDS011;65202;52.520;10.528;2023-07-02T06:06:12;14.25;;;8.32;;
76380;SDS011;65202;52.520;10.528;2023-07-02T06:08:39;12.07;;;7.95;;
76380;SDS011;65202;52.520;10.528;2023-07-02T06:11:07;18.80;;;8.30;;
76380;SDS011;65202;52.520;10.528;2023-07-02T06:13:34;14.50;;;8.20;;
76380;SDS011;65202;52.520;10.528;2023-07-02T06:16:01;18.88;;;8.18;;
76380;SDS011;65202;52.520;10.528;2023-07-02T06:18:28;16.17;;;7.55;;
76380;SDS011;65202;52.520;10.528;2023-07-02T06:20:56;16.88;;;8.07;;
76380;SDS011;65202;52.520;10.528;2023-07-02T06:23:23;16.17;;;7.30;;
76380;SDS011;65202;52.520;10.528;2023-07-02T06:25:50;14.73;;;6.88;;
76380;SDS011;65202;52.520;10.528;2023-07-02T06:28:26;16.85;;;7.50;;
76380;SDS011;65202;52.520;10.528;2023-07-02T06:30:53;14.73;;;6.65;;
76380;SDS011;65202;52.520;10.528;2023-07-02T06:33:20;21.15;;;9.20;;
76380;SDS011;65202;52.520;10.528;2023-07-02T06:35:48;17.70;;;8.77;;
76380;SDS011;65202;52.520;10.528;2023-07-02T06:38:16;17.92;;;8.65;;
76380;SDS011;65202;52.520;10.528;2023-07-02T06:40:43;15.30;;;6.45;;
76380;SDS011;65202;52.520;10.528;2023-07-02T06:43:10;16.92;;;7.13;;
76380;SDS011;65202;52.520;10.528;2023-07-02T06:45:38;16.83;;;7.40;;
76380;SDS011;65202;52.520;10.528;2023-07-02T06:48:05;20.48;;;6.85;;
76380;SDS011;65202;52.520;10.528;2023-07-02T06:50:32;18.65;;;7.05;;
76380;SDS011;65202;52.520;10.528;2023-07-02T06:52:59;21.25;;;7.57;;
76380;SDS011;65202;52.520;10.528;2023-07-02T06:55:27;20.05;;;7.82;;
76380;SDS011;65202;52.520;10.528;2023-07-02T06:57:54;23.30;;;8.05;;
76380;SDS011;65202;52.520;10.528;2023-07-02T07:00:21;17.58;;;7.65;;
76380;SDS011;65202;52.520;10.528;2023-07-02T07:02:48;17.75;;;7.55;;
76380;SDS011;65202;52.520;10.528;2023-07-02T07:05:16;21.38;;;8.15;;
76380;SDS011;65202;52.520;10.528;2023-07-02T07:07:43;24.95;;;8.18;;
76380;SDS011;65202;52.520;10.528;2023-07-02T07:10:10;23.10;;;7.93;;
76380;SDS011;65202;52.520;10.528;2023-07-02T07:12:37;23.73;;;7.65;;
76380;SDS011;65202;52.520;10.528;2023-07-02T07:15:04;21.48;;;8.10;;
76380;SDS011;65202;52.520;10.528;2023-07-02T07:17:32;26.65;;;7.63;;
76380;SDS011;65202;52.520;10.528;2023-07-02T07:19:59;21.65;;;7.10;;
76380;SDS011;65202;52.520;10.528;2023-07-02T07:22:29;24.50;;;7.70;;
76380;SDS011;65202;52.520;10.528;2023-07-02T07:24:56;23.48;;;7.57;;
76380;SDS011;65202;52.520;10.528;2023-07-02T07:27:23;21.10;;;7.65;;
76380;SDS011;65202;52.520;10.528;2023-07-02T07:29:50;25.48;;;8.07;;
76380;SDS011;65202;52.520;10.528;2023-07-02T07:32:19;23.30;;;7.60;;
76380;SDS011;65202;52.520;10.528;2023-07-02T07:34:47;18.50;;;7.90;;
76380;SDS011;65202;52.520;10.528;2023-07-02T07:37:15;27.48;;;8.50;;
76380;SDS011;65202;52.520;10.528;2023-07-02T07:39:42;22.88;;;7.90;;
76380;SDS011;65202;52.520;10.528;2023-07-02T07:42:09;21.27;;;8.50;;
76380;SDS011;65202;52.520;10.528;2023-07-02T07:44:36;26.42;;;8.15;;
76380;SDS011;65202;52.520;10.528;2023-07-02T07:47:04;23.58;;;7.88;;
76380;SDS011;65202;52.520;10.528;2023-07-02T07:49:31;22.00;;;8.43;;
76380;SDS011;65202;52.520;10.528;2023-07-02T07:51:58;19.88;;;8.57;;
76380;SDS011;65202;52.520;10.528;2023-07-02T07:54:25;28.05;;;9.30;;
76380;SDS011;65202;52.520;10.528;2023-07-02T07:56:53;18.65;;;7.55;;
76380;SDS011;65202;52.520;10.528;2023-07-02T07:59:20;25.27;;;8.95;;
76380;SDS011;65202;52.520;10.528;2023-07-02T08:01:47;20.40;;;8.15;;
76380;SDS011;65202;52.520;10.528;2023-07-02T08:04:15;25.17;;;8.70;;
76380;SDS011;65202;52.520;10.528;2023-07-02T08:06:42;19.10;;;8.10;;
76380;SDS011;65202;52.520;10.528;2023-07-02T08:09:11;30.33;;;8.77;;
76380;SDS011;65202;52.520;10.528;2023-07-02T08:11:38;20.98;;;8.55;;
76380;SDS011;65202;52.520;10.528;2023-07-02T08:14:05;20.65;;;8.35;;
76380;SDS011;65202;52.520;10.528;2023-07-02T08:16:33;24.75;;;8.75;;
76380;SDS011;65202;52.520;10.528;2023-07-02T08:19:01;23.95;;;9.23;;
76380;SDS011;65202;52.520;10.528;2023-07-02T08:21:28;29.50;;;8.50;;
76380;SDS011;65202;52.520;10.528;2023-07-02T08:23:55;18.50;;;8.43;;
76380;SDS011;65202;52.520;10.528;2023-07-02T08:26:24;23.30;;;8.43;;
76380;SDS011;65202;52.520;10.528;2023-07-02T08:28:51;28.40;;;8.65;;
76380;SDS011;65202;52.520;10.528;2023-07-02T08:31:19;24.17;;;9.40;;
76380;SDS011;65202;52.520;10.528;2023-07-02T08:33:46;25.00;;;8.60;;
76380;SDS011;65202;52.520;10.528;2023-07-02T08:36:13;21.92;;;8.85;;
76380;SDS011;65202;52.520;10.528;2023-07-02T08:38:40;21.40;;;8.52;;
76380;SDS011;65202;52.520;10.528;2023-07-02T08:41:09;21.25;;;8.82;;
76380;SDS011;65202;52.520;10.528;2023-07-02T08:43:37;27.83;;;9.18;;
76380;SDS011;65202;52.520;10.528;2023-07-02T08:46:04;26.23;;;8.52;;
76380;SDS011;65202;52.520;10.528;2023-07-02T08:48:34;21.40;;;8.50;;
76380;SDS011;65202;52.520;10.528;2023-07-02T08:51:02;17.88;;;8.52;;
76380;SDS011;65202;52.520;10.528;2023-07-02T08:53:29;25.00;;;9.02;;
76380;SDS011;65202;52.520;10.528;2023-07-02T08:56:00;20.27;;;8.60;;
76380;SDS011;65202;52.520;10.528;2023-07-02T08:58:29;21.92;;;9.40;;
76380;SDS011;65202;52.520;10.528;2023-07-02T09:01:10;27.52;;;9.25;;
76380;SDS011;65202;52.520;10.528;2023-07-02T09:03:40;23.20;;;9.52;;
76380;SDS011;65202;52.520;10.528;2023-07-02T09:06:09;22.55;;;9.77;;
76380;SDS011;65202;52.520;10.528;2023-07-02T09:08:38;25.95;;;9.18;;
76380;SDS011;65202;52.520;10.528;2023-07-02T09:11:09;22.85;;;8.60;;
76380;SDS011;65202;52.520;10.528;2023-07-02T09:13:42;22.30;;;9.27;;
76380;SDS011;65202;52.520;10.528;2023-07-02T09:16:20;26.77;;;8.82;;
76380;SDS011;65202;52.520;10.528;2023-07-02T09:19:13;20.88;;;8.70;;
76380;SDS011;65202;52.520;10.528;2023-07-02T09:21:42;28.15;;;8.93;;
76380;SDS011;65202;52.520;10.528;2023-07-02T09:24:19;19.42;;;8.77;;
76380;SDS011;65202;52.520;10.528;2023-07-02T09:26:53;24.35;;;8.93;;
76380;SDS011;65202;52.520;10.528;2023-07-02T09:32:01;21.55;;;10.05;;
76380;SDS011;65202;52.520;10.528;2023-07-02T09:34:34;21.52;;;9.15;;
76380;SDS011;65202;52.520;10.528;2023-07-02T09:37:05;17.17;;;8.77;;
76380;SDS011;65202;52.520;10.528;2023-07-02T09:39:33;16.58;;;8.75;;
76380;SDS011;65202;52.520;10.528;2023-07-02T09:42:06;22.27;;;10.38;;
76380;SDS011;65202;52.520;10.528;2023-07-02T09:44:35;24.85;;;9.35;;
76380;SDS011;65202;52.520;10.528;2023-07-02T09:47:03;30.50;;;8.98;;
76380;SDS011;65202;52.520;10.528;2023-07-02T09:49:34;19.45;;;9.55;;
76380;SDS011;65202;52.520;10.528;2023-07-02T09:52:10;21.98;;;9.57;;
76380;SDS011;65202;52.520;10.528;2023-07-02T09:54:41;23.15;;;9.65;;
76380;SDS011;65202;52.520;10.528;2023-07-02T09:57:08;20.58;;;9.10;;
76380;SDS011;65202;52.520;10.528;2023-07-02T09:59:36;27.98;;;9.23;;
76380;SDS011;65202;52.520;10.528;2023-07-02T10:02:05;24.63;;;9.68;;
76380;SDS011;65202;52.520;10.528;2023-07-02T10:04:39;25.25;;;9.15;;
76380;SDS011;65202;52.520;10.528;2023-07-02T10:07:11;33.05;;;9.55;;
76380;SDS011;65202;52.520;10.528;2023-07-02T10:09:44;27.85;;;9.05;;
76380;SDS011;65202;52.520;10.528;2023-07-02T10:12:20;24.70;;;9.63;;
76380;SDS011;65202;52.520;10.528;2023-07-02T10:14:50;26.60;;;9.20;;
76380;SDS011;65202;52.520;10.528;2023-07-02T10:20:35;27.45;;;9.15;;
76380;SDS011;65202;52.520;10.528;2023-07-02T10:23:04;22.27;;;8.90;;
76380;SDS011;65202;52.520;10.528;2023-07-02T10:25:37;23.00;;;9.68;;
76380;SDS011;65202;52.520;10.528;2023-07-02T10:28:15;19.52;;;8.55;;
76380;SDS011;65202;52.520;10.528;2023-07-02T10:30:46;25.45;;;9.77;;
76380;SDS011;65202;52.520;10.528;2023-07-02T10:33:14;23.88;;;9.05;;
76380;SDS011;65202;52.520;10.528;2023-07-02T10:35:44;23.77;;;9.30;;
76380;SDS011;65202;52.520;10.528;2023-07-02T10:38:20;24.23;;;9.90;;
76380;SDS011;65202;52.520;10.528;2023-07-02T10:40:56;23.17;;;9.35;;
76380;SDS011;65202;52.520;10.528;2023-07-02T10:43:29;21.30;;;8.68;;
76380;SDS011;65202;52.520;10.528;2023-07-02T10:45:59;22.85;;;9.13;;
76380;SDS011;65202;52.520;10.528;2023-07-02T10:48:28;22.83;;;10.07;;
76380;SDS011;65202;52.520;10.528;2023-07-02T10:50:56;30.75;;;10.80;;
76380;SDS011;65202;52.520;10.528;2023-07-02T10:53:24;18.88;;;9.02;;
76380;SDS011;65202;52.520;10.528;2023-07-02T10:55:54;25.05;;;9.90;;
76380;SDS011;65202;52.520;10.528;2023-07-02T10:58:24;24.85;;;9.07;;
76380;SDS011;65202;52.520;10.528;2023-07-02T11:00:52;22.95;;;10.00;;
76380;SDS011;65202;52.520;10.528;2023-07-02T11:03:21;21.35;;;9.48;;
76380;SDS011;65202;52.520;10.528;2023-07-02T11:05:51;23.45;;;9.05;;
76380;SDS011;65202;52.520;10.528;2023-07-02T11:08:20;23.67;;;9.35;;
76380;SDS011;65202;52.520;10.528;2023-07-02T11:10:48;23.02;;;9.60;;
76380;SDS011;65202;52.520;10.528;2023-07-02T11:13:16;22.48;;;9.90;;
76380;SDS011;65202;52.520;10.528;2023-07-02T11:15:46;21.73;;;10.07;;
76380;SDS011;65202;52.520;10.528;2023-07-02T11:18:15;23.38;;;9.35;;
76380;SDS011;65202;52.520;10.528;2023-07-02T11:20:44;25.35;;;9.55;;
76380;SDS011;65202;52.520;10.528;2023-07-02T11:23:20;21.58;;;9.07;;
76380;SDS011;65202;52.520;10.528;2023-07-02T11:26:02;21.23;;;9.60;;
76380;SDS011;65202;52.520;10.528;2023-07-02T11:28:30;19.55;;;9.55;;
76380;SDS011;65202;52.520;10.528;2023-07-02T11:30:58;22.90;;;8.50;;
76380;SDS011;65202;52.520;10.528;2023-07-02T11:33:41;30.13;;;9.82;;
76380;SDS011;65202;52.520;10.528;2023-07-02T11:36:19;18.83;;;8.77;;
76380;SDS011;65202;52.520;10.528;2023-07-02T11:38:54;27.67;;;8.98;;
76380;SDS011;65202;52.520;10.528;2023-07-02T11:41:22;23.20;;;8.70;;
76380;SDS011;65202;52.520;10.528;2023-07-02T11:43:49;19.00;;;8.90;;
76380;SDS011;65202;52.520;10.528;2023-07-02T11:46:16;22.27;;;8.52;;
76380;SDS011;65202;52.520;10.528;2023-07-02T11:48:44;23.67;;;9.07;;
76380;SDS011;65202;52.520;10.528;2023-07-02T11:51:11;22.55;;;8.63;;
76380;SDS011;65202;52.520;10.528;2023-07-02T11:53:38;21.40;;;8.65;;
76380;SDS011;65202;52.520;10.528;2023-07-02T11:56:06;19.48;;;8.30;;
76380;SDS011;65202;52.520;10.528;2023-07-02T11:58:33;16.15;;;7.72;;
76380;SDS011;65202;52.520;10.528;2023-07-02T12:01:00;25.33;;;8.30;;
76380;SDS011;65202;52.520;10.528;2023-07-02T12:03:27;18.38;;;7.93;;
76380;SDS011;65202;52.520;10.528;2023-07-02T12:05:55;22.65;;;8.43;;
76380;SDS011;65202;52.520;10.528;2023-07-02T12:08:22;20.98;;;8.65;;
76380;SDS011;65202;52.520;10.528;2023-07-02T12:10:50;18.70;;;7.60;;
76380;SDS011;65202;52.520;10.528;2023-07-02T12:13:17;27.08;;;9.20;;
76380;SDS011;65202;52.520;10.528;2023-07-02T12:15:46;24.27;;;9.68;;
76380;SDS011;65202;52.520;10.528;2023-07-02T12:18:15;23.70;;;8.45;;
76380;SDS011;65202;52.520;10.528;2023-07-02T12:20:42;22.23;;;7.55;;
76380;SDS011;65202;52.520;10.528;2023-07-02T12:23:10;24.75;;;8.13;;
76380;SDS011;65202;52.520;10.528;2023-07-02T12:25:38;21.77;;;7.82;;
76380;SDS011;65202;52.520;10.528;2023-07-02T12:28:06;23.08;;;8.80;;
76380;SDS011;65202;52.520;10.528;2023-07-02T12:30:33;18.92;;;7.82;;
76380;SDS011;65202;52.520;10.528;2023-07-02T12:33:00;19.80;;;7.65;;
76380;SDS011;65202;52.520;10.528;2023-07-02T12:35:28;17.98;;;7.10;;
76380;SDS011;65202;52.520;10.528;2023-07-02T12:37:55;22.80;;;9.32;;
76380;SDS011;65202;52.520;10.528;2023-07-02T12:40:23;16.98;;;7.63;;
76380;SDS011;65202;52.520;10.528;2023-07-02T12:42:50;21.52;;;8.15;;
76380;SDS011;65202;52.520;10.528;2023-07-02T12:45:17;20.63;;;7.68;;
76380;SDS011;65202;52.520;10.528;2023-07-02T12:47:47;23.92;;;8.55;;
76380;SDS011;65202;52.520;10.528;2023-07-02T12:50:15;20.67;;;8.13;;
76380;SDS011;65202;52.520;10.528;2023-07-02T12:52:42;19.55;;;7.97;;
76380;SDS011;65202;52.520;10.528;2023-07-02T12:55:09;23.35;;;8.68;;
76380;SDS011;65202;52.520;10.528;2023-07-02T12:57:37;18.17;;;8.55;;
76380;SDS011;65202;52.520;10.528;2023-07-02T13:00:04;19.38;;;8.30;;
76380;SDS011;65202;52.520;10.528;2023-07-02T13:02:33;18.17;;;9.32;;
76380;SDS011;65202;52.520;10.528;2023-07-02T13:05:12;21.13;;;7.85;;
76380;SDS011;65202;52.520;10.528;2023-07-02T13:07:40;17.83;;;7.95;;
76380;SDS011;65202;52.520;10.528;2023-07-02T13:10:08;15.27;;;6.85;;
76380;SDS011;65202;52.520;10.528;2023-07-02T13:12:36;19.70;;;7.60;;
76380;SDS011;65202;52.520;10.528;2023-07-02T13:15:03;19.65;;;7.55;;
76380;SDS011;65202;52.520;10.528;2023-07-02T13:17:31;18.63;;;6.88;;
76380;SDS011;65202;52.520;10.528;2023-07-02T13:19:58;17.38;;;7.35;;
76380;SDS011;65202;52.520;10.528;2023-07-02T13:22:25;14.70;;;6.55;;
76380;SDS011;65202;52.520;10.528;2023-07-02T13:24:52;18.25;;;7.00;;
76380;SDS011;65202;52.520;10.528;2023-07-02T13:27:20;19.40;;;8.88;;
76380;SDS011;65202;52.520;10.528;2023-07-02T13:29:47;19.25;;;7.13;;
76380;SDS011;65202;52.520;10.528;2023-07-02T13:32:14;17.92;;;7.00;;
76380;SDS011;65202;52.520;10.528;2023-07-02T13:34:41;14.48;;;6.70;;
76380;SDS011;65202;52.520;10.528;2023-07-02T13:37:09;15.73;;;6.55;;
76380;SDS011;65202;52.520;10.528;2023-07-02T13:39:36;19.73;;;6.72;;
76380;SDS011;65202;52.520;10.528;2023-07-02T13:42:03;20.50;;;7.35;;
76380;SDS011;65202;52.520;10.528;2023-07-02T13:44:31;19.23;;;8.45;;
76380;SDS011;65202;52.520;10.528;2023-07-02T13:46:59;17.95;;;8.02;;
76380;SDS011;65202;52.520;10.528;2023-07-02T13:49:26;18.73;;;8.20;;
76380;SDS011;65202;52.520;10.528;2023-07-02T13:51:53;16.58;;;7.30;;
76380;SDS011;65202;52.520;10.528;2023-07-02T13:54:20;12.75;;;6.95;;
76380;SDS011;65202;52.520;10.528;2023-07-02T13:56:48;19.88;;;6.85;;
76380;SDS011;65202;52.520;10.528;2023-07-02T13:59:17;19.02;;;7.13;;
76380;SDS011;65202;52.520;10.528;2023-07-02T14:01:46;22.40;;;7.03;;
76380;SDS011;65202;52.520;10.528;2023-07-02T14:04:15;16.85;;;7.25;;
76380;SDS011;65202;52.520;10.528;2023-07-02T14:06:44;16.20;;;6.85;;
76380;SDS011;65202;52.520;10.528;2023-07-02T14:09:11;16.00;;;7.53;;
76380;SDS011;65202;52.520;10.528;2023-07-02T14:11:40;16.25;;;7.03;;
76380;SDS011;65202;52.520;10.528;2023-07-02T14:14:09;14.95;;;7.03;;
76380;SDS011;65202;52.520;10.528;2023-07-02T14:16:37;13.70;;;7.00;;
76380;SDS011;65202;52.520;10.528;2023-07-02T14:19:04;15.68;;;7.55;;
76380;SDS011;65202;52.520;10.528;2023-07-02T14:21:32;20.73;;;7.72;;
76380;SDS011;65202;52.520;10.528;2023-07-02T14:23:59;17.60;;;7.72;;
76380;SDS011;65202;52.520;10.528;2023-07-02T14:26:26;16.40;;;7.00;;
76380;SDS011;65202;52.520;10.528;2023-07-02T14:28:53;21.40;;;7.57;;
76380;SDS011;65202;52.520;10.528;2023-07-02T14:31:21;26.10;;;10.75;;
76380;SDS011;65202;52.520;10.528;2023-07-02T14:33:48;16.33;;;6.97;;
76380;SDS011;65202;52.520;10.528;2023-07-02T14:36:16;19.33;;;7.82;;
76380;SDS011;65202;52.520;10.528;2023-07-02T14:38:43;16.58;;;6.53;;